Time,TemperatureF,DewpointF,PressureIn,WindDirection,WindDirectionDegrees,WindSpeedMPH,WindSpeedGustMPH,Humidity,HourlyPrecipIn,Conditions,Clouds,dailyrainin,SoftwareType,DateUTC
2013-01-09 00:01:00,33.6,12.5,23.54,West,281,2.0,3.0,41,0.00,,,0.00,WeatherTracker,2013-01-09 07:01:00,
2013-01-09 00:11:00,33.6,12.5,23.54,West,276,0.0,0.0,41,0.00,,,0.00,WeatherTracker,2013-01-09 07:11:00,
2013-01-09 00:16:00,33.6,12.5,23.51,SSW,210,0.0,0.0,41,0.00,,,0.00,WeatherTracker,2013-01-09 07:16:00,
2013-01-09 00:21:00,33.3,12.1,23.51,WNW,299,0.0,0.0,41,0.00,,,0.00,WeatherTracker,2013-01-09 07:21:00,
2013-01-09 00:26:00,33.3,12.7,23.51,West,278,3.0,0.0,42,0.00,,,0.00,WeatherTracker,2013-01-09 07:26:00,
2013-01-09 00:36:00,32.7,12.2,23.51,West,269,0.0,0.0,42,0.00,,,0.00,WeatherTracker,2013-01-09 07:36:00,
2013-01-09 00:41:00,32.4,11.9,23.51,West,279,0.0,0.0,42,0.00,,,0.00,WeatherTracker,2013-01-09 07:41:00,
2013-01-09 00:51:00,31.6,12.3,23.51,West,277,0.0,0.0,44,0.00,,,0.00,WeatherTracker,2013-01-09 07:51:00,
2013-01-09 01:01:00,31.3,12.4,23.51,West,280,0.0,0.0,45,0.00,,,0.00,WeatherTracker,2013-01-09 08:01:00,
2013-01-09 01:06:00,31.1,12.8,23.51,WNW,290,0.0,0.0,46,0.00,,,0.00,WeatherTracker,2013-01-09 08:06:00,
2013-01-09 01:11:00,31.1,12.8,23.51,South,169,3.0,0.0,46,0.00,,,0.00,WeatherTracker,2013-01-09 08:11:00,
2013-01-09 01:21:00,32.7,13.2,23.51,SSE,164,0.0,0.0,44,0.00,,,0.00,WeatherTracker,2013-01-09 08:21:00,
2013-01-09 01:26:00,32.7,13.2,23.51,SE,128,3.0,4.0,44,0.00,,,0.00,WeatherTracker,2013-01-09 08:26:00,
2013-01-09 01:31:00,32.5,12.6,23.51,West,272,0.0,0.0,43,0.00,,,0.00,WeatherTracker,2013-01-09 08:31:00,
2013-01-09 01:36:00,32.7,12.7,23.51,South,169,0.0,4.0,43,0.00,,,0.00,WeatherTracker,2013-01-09 08:36:00,
2013-01-09 01:46:00,33.1,13.0,23.51,WNW,285,0.0,0.0,43,0.00,,,0.00,WeatherTracker,2013-01-09 08:46:00,
2013-01-09 01:56:00,33.6,13.0,23.51,SW,235,0.0,0.0,42,0.00,,,0.00,WeatherTracker,2013-01-09 08:56:00,
2013-01-09 02:01:00,33.6,13.0,23.51,SSW,193,0.0,5.0,42,0.00,,,0.00,WeatherTracker,2013-01-09 09:01:00,
2013-01-09 02:11:00,33.8,12.6,23.51,WNW,283,0.0,4.0,41,0.00,,,0.00,WeatherTracker,2013-01-09 09:11:00,
2013-01-09 02:21:00,34.3,13.1,23.51,NE,51,0.0,3.0,41,0.00,,,0.00,WeatherTracker,2013-01-09 09:21:00,
2013-01-09 02:31:00,34.5,12.7,23.51,East,88,4.0,4.0,40,0.00,,,0.00,WeatherTracker,2013-01-09 09:31:00,
2013-01-09 02:36:00,34.7,13.4,23.51,ESE,120,0.0,0.0,41,0.00,,,0.00,WeatherTracker,2013-01-09 09:36:00,
2013-01-09 02:41:00,34.0,12.8,23.51,SE,140,0.0,0.0,41,0.00,,,0.00,WeatherTracker,2013-01-09 09:41:00,
2013-01-09 02:46:00,34.0,12.8,23.51,SSE,168,4.0,6.0,41,0.00,,,0.00,WeatherTracker,2013-01-09 09:46:00,
2013-01-09 02:51:00,34.3,13.1,23.51,NNW,331,0.0,2.0,41,0.00,,,0.00,WeatherTracker,2013-01-09 09:51:00,
2013-01-09 02:56:00,34.5,13.3,23.51,North,357,0.0,0.0,41,0.00,,,0.00,WeatherTracker,2013-01-09 09:56:00,
2013-01-09 03:06:00,34.2,12.9,23.51,ESE,105,2.0,0.0,41,0.00,,,0.00,WeatherTracker,2013-01-09 10:06:00,
2013-01-09 03:11:00,34.2,12.9,23.51,West,273,0.0,2.0,41,0.00,,,0.00,WeatherTracker,2013-01-09 10:11:00,
2013-01-09 03:16:00,34.0,12.8,23.51,ESE,105,3.0,3.0,41,0.00,,,0.00,WeatherTracker,2013-01-09 10:16:00,
2013-01-09 03:21:00,33.8,12.6,23.51,WNW,294,0.0,4.0,41,0.00,,,0.00,WeatherTracker,2013-01-09 10:21:00,
2013-01-09 03:26:00,33.6,12.5,23.51,North,353,0.0,0.0,41,0.00,,,0.00,WeatherTracker,2013-01-09 10:26:00,
2013-01-09 03:36:00,33.3,12.7,23.51,WNW,298,2.0,0.0,42,0.00,,,0.00,WeatherTracker,2013-01-09 10:36:00,
2013-01-09 03:46:00,32.9,12.4,23.51,WNW,289,0.0,0.0,42,0.00,,,0.00,WeatherTracker,2013-01-09 10:46:00,
2013-01-09 03:56:00,32.7,12.2,23.51,WNW,289,0.0,0.0,42,0.00,,,0.00,WeatherTracker,2013-01-09 10:56:00,
2013-01-09 04:06:00,32.7,12.2,23.51,NE,48,0.0,0.0,42,0.00,,,0.00,WeatherTracker,2013-01-09 11:06:00,
2013-01-09 04:11:00,32.7,12.2,23.51,NW,304,0.0,0.0,42,0.00,,,0.00,WeatherTracker,2013-01-09 11:11:00,
2013-01-09 04:21:00,32.5,12.0,23.51,NW,309,0.0,0.0,42,0.00,,,0.00,WeatherTracker,2013-01-09 11:21:00,
2013-01-09 04:26:00,32.4,11.9,23.51,WSW,241,0.0,0.0,42,0.00,,,0.00,WeatherTracker,2013-01-09 11:26:00,
2013-01-09 04:31:00,32.5,11.5,23.51,WSW,239,0.0,0.0,41,0.00,,,0.00,WeatherTracker,2013-01-09 11:31:00,
2013-01-09 04:41:00,32.5,11.5,23.51,WSW,238,0.0,0.0,41,0.00,,,0.00,WeatherTracker,2013-01-09 11:41:00,
2013-01-09 04:51:00,32.2,11.7,23.54,WSW,238,0.0,0.0,42,0.00,,,0.00,WeatherTracker,2013-01-09 11:51:00,
2013-01-09 04:56:00,31.6,11.2,23.54,WSW,238,0.0,0.0,42,0.00,,,0.00,WeatherTracker,2013-01-09 11:56:00,
2013-01-09 05:01:00,31.3,10.9,23.51,WSW,246,0.0,0.0,42,0.00,,,0.00,WeatherTracker,2013-01-09 12:01:00,
2013-01-09 05:06:00,31.1,10.7,23.51,West,274,0.0,0.0,42,0.00,,,0.00,WeatherTracker,2013-01-09 12:06:00,
2013-01-09 05:11:00,30.9,11.1,23.51,West,275,0.0,0.0,43,0.00,,,0.00,WeatherTracker,2013-01-09 12:11:00,
2013-01-09 05:16:00,30.7,10.9,23.51,West,275,0.0,0.0,43,0.00,,,0.00,WeatherTracker,2013-01-09 12:16:00,
2013-01-09 05:26:00,30.6,10.8,23.51,WSW,250,0.0,0.0,43,0.00,,,0.00,WeatherTracker,2013-01-09 12:26:00,
2013-01-09 05:31:00,30.6,10.8,23.51,SSW,211,0.0,0.0,43,0.00,,,0.00,WeatherTracker,2013-01-09 12:31:00,
2013-01-09 05:41:00,30.2,10.9,23.51,SSW,203,0.0,0.0,44,0.00,,,0.00,WeatherTracker,2013-01-09 12:41:00,
2013-01-09 05:46:00,30.2,11.4,23.51,SW,233,4.0,4.0,45,0.00,,,0.00,WeatherTracker,2013-01-09 12:46:00,
2013-01-09 05:51:00,30.4,11.1,23.51,West,273,0.0,0.0,44,0.00,,,0.00,WeatherTracker,2013-01-09 12:51:00,
2013-01-09 06:01:00,30.4,10.6,23.51,West,277,0.0,0.0,43,0.00,,,0.00,WeatherTracker,2013-01-09 13:01:00,
2013-01-09 06:06:00,30.7,10.9,23.51,SW,215,0.0,0.0,43,0.00,,,0.00,WeatherTracker,2013-01-09 13:06:00,
2013-01-09 06:16:00,30.7,10.9,23.54,SW,222,0.0,0.0,43,0.00,,,0.00,WeatherTracker,2013-01-09 13:16:00,
2013-01-09 06:26:00,30.6,10.8,23.54,SSW,209,0.0,0.0,43,0.00,,,0.00,WeatherTracker,2013-01-09 13:26:00,
2013-01-09 06:31:00,30.6,10.8,23.56,SW,220,0.0,0.0,43,0.00,,,0.00,WeatherTracker,2013-01-09 13:31:00,
2013-01-09 06:36:00,30.6,10.8,23.56,WNW,292,2.0,3.0,43,0.00,,,0.00,WeatherTracker,2013-01-09 13:36:00,
2013-01-09 06:46:00,30.6,10.8,23.56,WSW,237,0.0,0.0,43,0.00,,,0.00,WeatherTracker,2013-01-09 13:46:00,
2013-01-09 06:51:00,30.6,10.8,23.56,SW,214,0.0,0.0,43,0.00,,,0.00,WeatherTracker,2013-01-09 13:51:00,
2013-01-09 07:01:00,30.2,10.4,23.56,SW,220,0.0,0.0,43,0.00,,,0.00,WeatherTracker,2013-01-09 14:01:00,
2013-01-09 07:06:00,30.0,10.8,23.56,WSW,247,0.0,0.0,44,0.00,,,0.00,WeatherTracker,2013-01-09 14:06:00,
2013-01-09 07:16:00,29.8,10.6,23.59,SSE,147,0.0,0.0,44,0.00,,,0.00,WeatherTracker,2013-01-09 14:16:00,
2013-01-09 07:26:00,29.7,9.9,23.59,NW,310,0.0,0.0,43,0.00,,,0.00,WeatherTracker,2013-01-09 14:26:00,
2013-01-09 07:36:00,29.5,10.3,23.59,NNW,332,0.0,0.0,44,0.00,,,0.00,WeatherTracker,2013-01-09 14:36:00,
2013-01-09 07:41:00,29.5,10.3,23.59,NE,40,0.0,0.0,44,0.00,,,0.00,WeatherTracker,2013-01-09 14:41:00,
2013-01-09 07:51:00,29.3,10.1,23.59,WNW,302,0.0,0.0,44,0.00,,,0.00,WeatherTracker,2013-01-09 14:51:00,
2013-01-09 08:01:00,29.1,10.0,23.59,NW,323,0.0,0.0,44,0.00,,,0.00,WeatherTracker,2013-01-09 15:01:00,
2013-01-09 08:06:00,29.1,10.5,23.59,WNW,303,0.0,0.0,45,0.00,,,0.00,WeatherTracker,2013-01-09 15:06:00,
2013-01-09 08:11:00,29.3,10.6,23.59,WSW,237,0.0,0.0,45,0.00,,,0.00,WeatherTracker,2013-01-09 15:11:00,
2013-01-09 08:21:00,28.9,10.8,23.59,WSW,257,0.0,0.0,46,0.00,,,0.00,WeatherTracker,2013-01-09 15:21:00,
2013-01-09 08:26:00,29.3,11.1,23.59,West,261,0.0,0.0,46,0.00,,,0.00,WeatherTracker,2013-01-09 15:26:00,
2013-01-09 08:36:00,30.2,10.9,23.59,ENE,59,0.0,0.0,44,0.00,,,0.00,WeatherTracker,2013-01-09 15:36:00,
2013-01-09 08:41:00,30.6,10.8,23.59,NE,52,0.0,0.0,43,0.00,,,0.00,WeatherTracker,2013-01-09 15:41:00,
2013-01-09 08:46:00,31.1,11.2,23.59,NNE,28,0.0,0.0,43,0.00,,,0.00,WeatherTracker,2013-01-09 15:46:00,
2013-01-09 08:51:00,31.6,11.7,23.59,North,3,0.0,0.0,43,0.00,,,0.00,WeatherTracker,2013-01-09 15:51:00,
2013-01-09 08:56:00,31.8,11.4,23.59,NW,323,0.0,0.0,42,0.00,,,0.00,WeatherTracker,2013-01-09 15:56:00,
2013-01-09 09:01:00,32.2,11.7,23.59,NNW,346,0.0,0.0,42,0.00,,,0.00,WeatherTracker,2013-01-09 16:01:00,
2013-01-09 09:11:00,32.4,11.9,23.59,NNW,348,0.0,0.0,42,0.00,,,0.00,WeatherTracker,2013-01-09 16:11:00,
2013-01-09 09:21:00,33.4,12.8,23.59,South,171,0.0,0.0,42,0.00,,,0.00,WeatherTracker,2013-01-09 16:21:00,
2013-01-09 09:31:00,34.2,12.9,23.59,SE,125,0.0,0.0,41,0.00,,,0.00,WeatherTracker,2013-01-09 16:31:00,
2013-01-09 09:36:00,34.7,12.9,23.59,NNW,342,0.0,0.0,40,0.00,,,0.00,WeatherTracker,2013-01-09 16:36:00,
2013-01-09 09:41:00,35.1,13.2,23.59,NNE,27,0.0,0.0,40,0.00,,,0.00,WeatherTracker,2013-01-09 16:41:00,
2013-01-09 09:46:00,35.2,13.4,23.59,NW,321,0.0,0.0,40,0.00,,,0.00,WeatherTracker,2013-01-09 16:46:00,
2013-01-09 09:56:00,35.6,13.7,23.59,NW,326,0.0,0.0,40,0.00,,,0.00,WeatherTracker,2013-01-09 16:56:00,
2013-01-09 10:01:00,35.6,13.1,23.59,NNW,345,0.0,0.0,39,0.00,,,0.00,WeatherTracker,2013-01-09 17:01:00,
2013-01-09 10:06:00,35.8,13.8,23.59,SE,138,0.0,0.0,40,0.00,,,0.00,WeatherTracker,2013-01-09 17:06:00,
2013-01-09 10:11:00,36.0,14.0,23.59,ESE,119,0.0,3.0,40,0.00,,,0.00,WeatherTracker,2013-01-09 17:11:00,
2013-01-09 10:21:00,36.3,13.8,23.59,NNW,345,3.0,3.0,39,0.00,,,0.00,WeatherTracker,2013-01-09 17:21:00,
2013-01-09 10:31:00,36.7,14.1,23.59,NE,56,2.0,3.0,39,0.00,,,0.00,WeatherTracker,2013-01-09 17:31:00,
2013-01-09 10:41:00,36.9,14.2,23.59,North,10,0.0,0.0,39,0.00,,,0.00,WeatherTracker,2013-01-09 17:41:00,
2013-01-09 10:46:00,37.2,14.6,23.59,ENE,63,0.0,0.0,39,0.00,,,0.00,WeatherTracker,2013-01-09 17:46:00,
2013-01-09 10:56:00,37.6,14.3,23.59,North,353,0.0,0.0,38,0.00,,,0.00,WeatherTracker,2013-01-09 17:56:00,
2013-01-09 11:06:00,38.1,14.2,23.62,East,99,0.0,0.0,37,0.00,,,0.00,WeatherTracker,2013-01-09 18:06:00,
2013-01-09 11:16:00,38.3,14.3,23.59,East,91,0.0,2.0,37,0.00,,,0.00,WeatherTracker,2013-01-09 18:16:00,
2013-01-09 11:26:00,38.8,14.8,23.59,North,4,0.0,0.0,37,0.00,,,0.00,WeatherTracker,2013-01-09 18:26:00,
2013-01-09 11:31:00,39.2,14.5,23.59,ENE,65,0.0,0.0,36,0.00,,,0.00,WeatherTracker,2013-01-09 18:31:00,
2013-01-09 11:41:00,39.7,14.4,23.59,ENE,78,0.0,0.0,35,0.00,,,0.00,WeatherTracker,2013-01-09 18:41:00,
2013-01-09 11:46:00,40.1,14.7,23.56,ESE,109,0.0,0.0,35,0.00,,,0.00,WeatherTracker,2013-01-09 18:46:00,
2013-01-09 11:51:00,40.5,14.3,23.56,NNW,344,0.0,0.0,34,0.00,,,0.00,WeatherTracker,2013-01-09 18:51:00,
2013-01-09 12:01:00,40.6,14.5,23.56,North,0,2.0,0.0,34,0.00,,,0.00,WeatherTracker,2013-01-09 19:01:00,
2013-01-09 12:06:00,41.0,14.1,23.56,East,99,0.0,0.0,33,0.00,,,0.00,WeatherTracker,2013-01-09 19:06:00,
2013-01-09 12:11:00,41.2,15.0,23.56,ESE,122,0.0,0.0,34,0.00,,,0.00,WeatherTracker,2013-01-09 19:11:00,
2013-01-09 12:16:00,41.4,14.4,23.56,NNW,348,2.0,3.0,33,0.00,,,0.00,WeatherTracker,2013-01-09 19:16:00,
2013-01-09 12:21:00,41.9,14.2,23.56,ESE,109,0.0,0.0,32,0.00,,,0.00,WeatherTracker,2013-01-09 19:21:00,
2013-01-09 12:26:00,41.9,14.9,23.56,NW,325,0.0,2.0,33,0.00,,,0.00,WeatherTracker,2013-01-09 19:26:00,
2013-01-09 12:31:00,41.9,14.2,23.56,East,98,3.0,0.0,32,0.00,,,0.00,WeatherTracker,2013-01-09 19:31:00,
2013-01-09 12:41:00,42.4,14.7,23.56,NE,45,0.0,0.0,32,0.00,,,0.00,WeatherTracker,2013-01-09 19:41:00,
2013-01-09 12:51:00,42.4,14.7,23.54,SE,145,0.0,0.0,32,0.00,,,0.00,WeatherTracker,2013-01-09 19:51:00,
2013-01-09 13:06:00,42.8,15.0,23.54,ESE,122,0.0,0.0,32,0.00,,,0.00,WeatherTracker,2013-01-09 20:06:00,
2013-01-09 13:16:00,43.0,14.4,23.54,ESE,103,0.0,0.0,31,0.00,,,0.00,WeatherTracker,2013-01-09 20:16:00,
2013-01-09 13:26:00,43.3,14.8,23.54,NNW,342,0.0,0.0,31,0.00,,,0.00,WeatherTracker,2013-01-09 20:26:00,
2013-01-09 13:31:00,43.5,14.2,23.54,North,353,0.0,0.0,30,0.00,,,0.00,WeatherTracker,2013-01-09 20:31:00,
2013-01-09 13:36:00,43.7,14.3,23.54,NNW,341,0.0,0.0,30,0.00,,,0.00,WeatherTracker,2013-01-09 20:36:00,
2013-01-09 13:46:00,43.7,14.3,23.54,SE,138,0.0,0.0,30,0.00,,,0.00,WeatherTracker,2013-01-09 20:46:00,
2013-01-09 13:51:00,43.5,14.9,23.54,North,357,0.0,0.0,31,0.00,,,0.00,WeatherTracker,2013-01-09 20:51:00,
2013-01-09 13:56:00,43.3,14.0,23.54,NNW,342,0.0,0.0,30,0.00,,,0.00,WeatherTracker,2013-01-09 20:56:00,
2013-01-09 14:01:00,43.7,14.3,23.51,North,353,0.0,0.0,30,0.00,,,0.00,WeatherTracker,2013-01-09 21:01:00,
2013-01-09 14:11:00,43.7,14.3,23.51,NE,52,0.0,0.0,30,0.00,,,0.00,WeatherTracker,2013-01-09 21:11:00,
2013-01-09 14:21:00,44.1,14.6,23.51,North,5,0.0,0.0,30,0.00,,,0.00,WeatherTracker,2013-01-09 21:21:00,
2013-01-09 14:26:00,43.9,14.5,23.51,North,5,0.0,0.0,30,0.00,,,0.00,WeatherTracker,2013-01-09 21:26:00,
2013-01-09 14:36:00,43.9,14.5,23.51,NNW,331,0.0,0.0,30,0.00,,,0.00,WeatherTracker,2013-01-09 21:36:00,
2013-01-09 14:41:00,43.7,15.1,23.51,ENE,64,2.0,0.0,31,0.00,,,0.00,WeatherTracker,2013-01-09 21:41:00,
2013-01-09 14:46:00,43.7,13.6,23.51,NW,320,0.0,3.0,29,0.00,,,0.00,WeatherTracker,2013-01-09 21:46:00,
2013-01-09 14:56:00,43.7,15.1,23.51,NW,326,0.0,0.0,31,0.00,,,0.00,WeatherTracker,2013-01-09 21:56:00,
2013-01-09 15:01:00,43.7,14.3,23.51,North,357,0.0,0.0,30,0.00,,,0.00,WeatherTracker,2013-01-09 22:01:00,
2013-01-09 15:11:00,43.7,14.3,23.51,North,357,0.0,0.0,30,0.00,,,0.00,WeatherTracker,2013-01-09 22:11:00,
2013-01-09 15:21:00,44.4,14.9,23.48,NE,45,0.0,0.0,30,0.00,,,0.00,WeatherTracker,2013-01-09 22:21:00,
2013-01-09 15:31:00,44.1,14.6,23.48,NNW,348,0.0,0.0,30,0.00,,,0.00,WeatherTracker,2013-01-09 22:31:00,
2013-01-09 15:36:00,44.2,14.8,23.48,NNW,348,0.0,0.0,30,0.00,,,0.00,WeatherTracker,2013-01-09 22:36:00,
2013-01-09 15:46:00,43.7,14.3,23.48,NNE,31,0.0,0.0,30,0.00,,,0.00,WeatherTracker,2013-01-09 22:46:00,
2013-01-09 15:51:00,43.2,14.6,23.48,NE,37,0.0,0.0,31,0.00,,,0.00,WeatherTracker,2013-01-09 22:51:00,
2013-01-09 15:56:00,43.2,13.9,23.48,NW,318,0.0,0.0,30,0.00,,,0.00,WeatherTracker,2013-01-09 22:56:00,
2013-01-09 16:01:00,42.8,14.3,23.48,NW,321,0.0,0.0,31,0.00,,,0.00,WeatherTracker,2013-01-09 23:01:00,
2013-01-09 16:11:00,42.1,14.4,23.48,North,353,0.0,0.0,32,0.00,,,0.00,WeatherTracker,2013-01-09 23:11:00,
2013-01-09 16:16:00,42.1,14.4,23.48,ENE,58,0.0,0.0,32,0.00,,,0.00,WeatherTracker,2013-01-09 23:16:00,
2013-01-09 16:21:00,43.0,14.4,23.48,NNW,335,0.0,0.0,31,0.00,,,0.00,WeatherTracker,2013-01-09 23:21:00,
2013-01-09 16:31:00,42.4,14.7,23.48,NW,313,0.0,0.0,32,0.00,,,0.00,WeatherTracker,2013-01-09 23:31:00,
2013-01-09 16:41:00,41.2,15.0,23.48,NW,305,0.0,0.0,34,0.00,,,0.00,WeatherTracker,2013-01-09 23:41:00,
2013-01-09 16:46:00,40.8,14.6,23.48,NW,319,0.0,0.0,34,0.00,,,0.00,WeatherTracker,2013-01-09 23:46:00,
2013-01-09 16:56:00,40.3,15.5,23.48,NW,319,0.0,0.0,36,0.00,,,0.00,WeatherTracker,2013-01-09 23:56:00,
2013-01-09 17:06:00,39.4,15.3,23.48,NW,319,0.0,0.0,37,0.00,,,0.00,WeatherTracker,2013-01-10 00:06:00,
2013-01-09 17:16:00,38.7,15.9,23.48,NW,319,0.0,0.0,39,0.00,,,0.00,WeatherTracker,2013-01-10 00:16:00,
2013-01-09 17:26:00,38.1,15.4,23.48,NW,319,0.0,0.0,39,0.00,,,0.00,WeatherTracker,2013-01-10 00:26:00,
2013-01-09 17:31:00,37.8,15.1,23.48,NW,319,0.0,0.0,39,0.00,,,0.00,WeatherTracker,2013-01-10 00:31:00,
2013-01-09 17:41:00,37.2,15.1,23.48,NW,319,0.0,0.0,40,0.00,,,0.00,WeatherTracker,2013-01-10 00:41:00,
2013-01-09 17:51:00,36.3,14.9,23.48,NW,319,0.0,0.0,41,0.00,,,0.00,WeatherTracker,2013-01-10 00:51:00,
2013-01-09 18:01:00,36.0,14.6,23.48,NW,319,0.0,0.0,41,0.00,,,0.00,WeatherTracker,2013-01-10 01:01:00,
2013-01-09 18:06:00,35.8,15.0,23.48,NW,319,0.0,0.0,42,0.00,,,0.00,WeatherTracker,2013-01-10 01:06:00,
2013-01-09 18:16:00,35.2,16.0,23.48,NW,319,0.0,0.0,45,0.00,,,0.00,WeatherTracker,2013-01-10 01:16:00,
2013-01-09 18:21:00,34.9,14.7,23.48,NW,319,0.0,0.0,43,0.00,,,0.00,WeatherTracker,2013-01-10 01:21:00,
2013-01-09 18:31:00,34.2,14.6,23.48,NW,319,0.0,0.0,44,0.00,,,0.00,WeatherTracker,2013-01-10 01:31:00,
2013-01-09 18:41:00,33.6,15.6,23.48,SSW,209,0.0,0.0,47,0.00,,,0.00,WeatherTracker,2013-01-10 01:41:00,
2013-01-09 18:46:00,33.6,16.0,23.48,SSW,209,0.0,0.0,48,0.00,,,0.00,WeatherTracker,2013-01-10 01:46:00,
2013-01-09 18:51:00,33.4,15.9,23.48,SSW,209,0.0,0.0,48,0.00,,,0.00,WeatherTracker,2013-01-10 01:51:00,
2013-01-09 18:56:00,33.3,15.2,23.48,SSW,209,0.0,0.0,47,0.00,,,0.00,WeatherTracker,2013-01-10 01:56:00,
2013-01-09 19:01:00,32.9,14.9,23.48,SSW,209,0.0,0.0,47,0.00,,,0.00,WeatherTracker,2013-01-10 02:01:00,
2013-01-09 19:06:00,32.7,14.2,23.48,SSW,209,0.0,0.0,46,0.00,,,0.00,WeatherTracker,2013-01-10 02:06:00,
2013-01-09 19:16:00,32.0,14.1,23.48,SSW,209,0.0,0.0,47,0.00,,,0.00,WeatherTracker,2013-01-10 02:16:00,
2013-01-09 19:26:00,31.1,13.3,23.48,SSW,209,0.0,0.0,47,0.00,,,0.00,WeatherTracker,2013-01-10 02:26:00,
2013-01-09 19:31:00,30.7,12.9,23.48,SSW,209,0.0,0.0,47,0.00,,,0.00,WeatherTracker,2013-01-10 02:31:00,
2013-01-09 19:36:00,30.4,13.5,23.48,SSW,209,0.0,0.0,49,0.00,,,0.00,WeatherTracker,2013-01-10 02:36:00,
2013-01-09 19:41:00,30.0,13.7,23.48,SSW,209,0.0,0.0,50,0.00,,,0.00,WeatherTracker,2013-01-10 02:41:00,
2013-01-09 19:51:00,29.7,13.8,23.48,SSW,209,0.0,0.0,51,0.00,,,0.00,WeatherTracker,2013-01-10 02:51:00,
2013-01-09 20:01:00,29.5,13.6,23.48,SSW,209,0.0,0.0,51,0.00,,,0.00,WeatherTracker,2013-01-10 03:01:00,
2013-01-09 20:11:00,29.3,13.4,23.48,SSW,209,0.0,0.0,51,0.00,,,0.00,WeatherTracker,2013-01-10 03:11:00,
2013-01-09 20:16:00,29.1,13.3,23.45,SSW,209,0.0,0.0,51,0.00,,,0.00,WeatherTracker,2013-01-10 03:16:00,
2013-01-09 20:21:00,28.9,13.1,23.45,SSW,209,0.0,0.0,51,0.00,,,0.00,WeatherTracker,2013-01-10 03:21:00,
2013-01-09 20:26:00,28.8,12.9,23.45,SSW,209,0.0,0.0,51,0.00,,,0.00,WeatherTracker,2013-01-10 03:26:00,
2013-01-09 20:36:00,28.8,13.4,23.45,SSW,209,0.0,0.0,52,0.00,,,0.00,WeatherTracker,2013-01-10 03:36:00,
2013-01-09 20:41:00,28.6,13.6,23.45,SSW,209,0.0,0.0,53,0.00,,,0.00,WeatherTracker,2013-01-10 03:41:00,
2013-01-09 20:46:00,28.2,13.3,23.45,SSW,209,0.0,0.0,53,0.00,,,0.00,WeatherTracker,2013-01-10 03:46:00,
2013-01-09 20:56:00,28.0,13.1,23.45,SSW,209,0.0,0.0,53,0.00,,,0.00,WeatherTracker,2013-01-10 03:56:00,
2013-01-09 21:01:00,27.9,13.0,23.45,SSW,209,0.0,0.0,53,0.00,,,0.00,WeatherTracker,2013-01-10 04:01:00,
2013-01-09 21:06:00,27.9,13.0,23.45,SSW,209,0.0,0.0,53,0.00,,,0.00,WeatherTracker,2013-01-10 04:06:00,
2013-01-09 21:11:00,27.9,13.4,23.45,SSW,209,0.0,0.0,54,0.00,,,0.00,WeatherTracker,2013-01-10 04:11:00,
2013-01-09 21:21:00,27.9,13.4,23.45,SSW,209,0.0,0.0,54,0.00,,,0.00,WeatherTracker,2013-01-10 04:21:00,
2013-01-09 21:26:00,27.9,13.4,23.45,SSW,209,0.0,0.0,54,0.00,,,0.00,WeatherTracker,2013-01-10 04:26:00,
2013-01-09 21:36:00,27.5,13.1,23.45,SSW,209,0.0,0.0,54,0.00,,,0.00,WeatherTracker,2013-01-10 04:36:00,
2013-01-09 21:46:00,27.0,13.0,23.45,SSW,209,0.0,0.0,55,0.00,,,0.00,WeatherTracker,2013-01-10 04:46:00,
2013-01-09 21:51:00,26.8,12.8,23.45,SSW,209,0.0,0.0,55,0.00,,,0.00,WeatherTracker,2013-01-10 04:51:00,
2013-01-09 22:01:00,26.8,13.2,23.42,SSW,209,0.0,0.0,56,0.00,,,0.00,WeatherTracker,2013-01-10 05:01:00,
2013-01-09 22:06:00,26.6,13.0,23.42,SSW,209,0.0,0.0,56,0.00,,,0.00,WeatherTracker,2013-01-10 05:06:00,
2013-01-09 22:11:00,26.4,12.9,23.42,SSW,209,0.0,0.0,56,0.00,,,0.00,WeatherTracker,2013-01-10 05:11:00,
2013-01-09 22:21:00,26.2,12.7,23.42,SSW,209,0.0,0.0,56,0.00,,,0.00,WeatherTracker,2013-01-10 05:21:00,
2013-01-09 22:26:00,26.1,12.5,23.42,SSW,209,0.0,0.0,56,0.00,,,0.00,WeatherTracker,2013-01-10 05:26:00,
2013-01-09 22:31:00,26.1,12.5,23.42,SSW,209,0.0,0.0,56,0.00,,,0.00,WeatherTracker,2013-01-10 05:31:00,
2013-01-09 22:36:00,26.1,12.5,23.42,SSW,209,0.0,0.0,56,0.00,,,0.00,WeatherTracker,2013-01-10 05:36:00,
2013-01-09 22:46:00,25.7,12.2,23.42,SSW,209,0.0,0.0,56,0.00,,,0.00,WeatherTracker,2013-01-10 05:46:00,
2013-01-09 22:56:00,25.3,12.3,23.42,SSW,209,0.0,0.0,57,0.00,,,0.00,WeatherTracker,2013-01-10 05:56:00,
2013-01-09 23:01:00,25.3,12.3,23.39,SSW,209,0.0,0.0,57,0.00,,,0.00,WeatherTracker,2013-01-10 06:01:00,
2013-01-09 23:06:00,25.2,12.1,23.39,SSW,209,0.0,0.0,57,0.00,,,0.00,WeatherTracker,2013-01-10 06:06:00,
2013-01-09 23:11:00,25.2,12.1,23.39,SSW,209,0.0,0.0,57,0.00,,,0.00,WeatherTracker,2013-01-10 06:11:00,
2013-01-09 23:21:00,24.8,12.1,23.42,SSW,205,0.0,0.0,58,0.00,,,0.00,WeatherTracker,2013-01-10 06:21:00,
2013-01-09 23:26:00,24.8,11.8,23.42,SSW,205,0.0,0.0,57,0.00,,,0.00,WeatherTracker,2013-01-10 06:26:00,
2013-01-09 23:36:00,24.8,11.8,23.42,SSW,205,0.0,0.0,57,0.00,,,0.00,WeatherTracker,2013-01-10 06:36:00,
2013-01-09 23:41:00,24.6,11.6,23.42,SSW,205,0.0,0.0,57,0.00,,,0.00,WeatherTracker,2013-01-10 06:41:00,
2013-01-09 23:51:00,24.6,11.6,23.42,SSW,205,0.0,0.0,57,0.00,,,0.00,WeatherTracker,2013-01-10 06:51:00,
2013-01-09 23:56:00,24.6,11.6,23.42,SSW,205,0.0,0.0,57,0.00,,,0.00,WeatherTracker,2013-01-10 06:56:00,